Time;durP1;ratioP1;P1;durP2;ratioP2;P2;SDS_P1;SDS_P2;PMS_P1;PMS_P2;Temp;Humidity;BMP_temperature;BMP_pressure;BME280_temperature;BME280_humidity;BME280_pressure;Samples;Min_cycle;Max_cycle;Signal;HPM_P1;HPM_P2
2021/11/09 00:00:55;;;;;;;8.55;4.92;;;;;;;10.22;56.49;100792.11;1678680;83;21057;-69
2021/11/09 00:03:21;;;;;;;7.75;4.83;;;;;;;10.18;56.65;100792.33;1657683;84;21142;-69
2021/11/09 00:06:00;;;;;;;8.18;4.87;;;;;;;10.17;56.68;100786.72;1677038;83;21112;-69
2021/11/09 00:08:25;;;;;;;6.83;4.58;;;;;;;10.24;56.59;100791.34;1668133;85;21078;-70
2021/11/09 00:10:53;;;;;;;8.28;5.17;;;;;;;10.24;56.66;100792.67;1670407;84;21062;-70
2021/11/09 00:13:20;;;;;;;7.90;4.87;;;;;;;10.22;56.71;100794.78;1678316;83;21624;-68
2021/11/09 00:15:47;;;;;;;8.78;5.17;;;;;;;10.24;56.83;100803.89;1689810;83;21015;-69
2021/11/09 00:18:14;;;;;;;6.87;4.83;;;;;;;10.23;56.93;100807.59;1689972;83;21141;-69
2021/11/09 00:20:41;;;;;;;7.65;4.67;;;;;;;10.21;56.91;100802.52;1678319;84;21081;-69
2021/11/09 00:23:09;;;;;;;7.33;5.10;;;;;;;10.20;57.08;100801.41;1671177;85;21530;-68
2021/11/09 00:25:37;;;;;;;7.80;4.85;;;;;;;10.21;57.13;100803.85;1671139;85;21511;-69
2021/11/09 00:28:05;;;;;;;8.48;5.10;;;;;;;10.22;57.25;100797.45;1670356;85;21022;-68
2021/11/09 00:30:34;;;;;;;8.73;5.03;;;;;;;10.24;57.33;100798.55;1671010;84;21019;-69
2021/11/09 00:33:01;;;;;;;7.90;5.58;;;;;;;10.25;57.35;100798.28;1671333;85;21034;-69
2021/11/09 00:35:30;;;;;;;7.85;5.50;;;;;;;10.27;57.41;100798.09;1671061;84;21829;-69
2021/11/09 00:37:59;;;;;;;7.05;4.72;;;;;;;10.26;57.56;100797.78;1671376;85;21581;-69
2021/11/09 00:40:29;;;;;;;9.60;5.25;;;;;;;10.25;57.63;100801.48;1671201;85;21659;-69
2021/11/09 00:42:56;;;;;;;8.28;5.15;;;;;;;10.25;57.72;100799.63;1671439;85;21109;-69
2021/11/09 00:45:23;;;;;;;7.58;5.53;;;;;;;10.25;57.71;100796.15;1671460;84;21118;-69
2021/11/09 00:47:50;;;;;;;8.83;4.53;;;;;;;10.23;57.84;100803.09;1671205;85;21491;-69
2021/11/09 00:50:19;;;;;;;7.92;5.30;;;;;;;10.25;57.96;100798.82;1671317;85;21008;-69
2021/11/09 00:52:45;;;;;;;7.12;4.65;;;;;;;10.25;58.04;100802.83;1671394;85;21014;-68
2021/11/09 00:55:15;;;;;;;7.90;4.85;;;;;;;10.25;58.05;100796.15;1671219;85;21054;-68
2021/11/09 00:57:43;;;;;;;9.38;6.00;;;;;;;10.26;58.04;100793.78;1671437;85;21085;-69
2021/11/09 01:00:14;;;;;;;8.18;5.20;;;;;;;10.26;58.05;100799.92;1671074;85;21961;-69
2021/11/09 01:02:42;;;;;;;8.58;5.60;;;;;;;10.29;58.13;100809.30;1671391;85;20999;-68
2021/11/09 01:05:10;;;;;;;8.15;5.20;;;;;;;10.33;58.13;100808.58;1671060;85;21003;-69
2021/11/09 01:07:39;;;;;;;8.60;5.80;;;;;;;10.36;58.13;100807.78;1671296;85;21475;-68
2021/11/09 01:10:06;;;;;;;8.10;5.62;;;;;;;10.37;58.11;100808.88;1671025;85;21046;-68
2021/11/09 01:12:35;;;;;;;6.85;4.78;;;;;;;10.39;58.13;100821.97;1671475;84;21182;-68
2021/11/09 01:15:06;;;;;;;8.55;5.40;;;;;;;10.37;58.16;100824.91;1671000;84;21074;-68
2021/11/09 01:17:34;;;;;;;7.83;5.28;;;;;;;10.36;58.24;100821.13;1671228;84;21089;-68
2021/11/09 01:20:03;;;;;;;7.28;5.00;;;;;;;10.36;58.32;100816.59;1671168;84;21094;-69
2021/11/09 01:22:30;;;;;;;7.60;5.10;;;;;;;10.36;58.45;100814.45;1671320;84;21108;-68
2021/11/09 01:24:59;;;;;;;7.87;5.22;;;;;;;10.34;58.51;100816.05;1671224;84;21031;-68
2021/11/09 01:27:26;;;;;;;8.50;4.90;;;;;;;10.36;58.52;100819.80;1671239;84;20982;-69
2021/11/09 01:29:53;;;;;;;7.45;4.65;;;;;;;10.36;58.49;100827.27;1671241;85;21059;-68
2021/11/09 01:32:20;;;;;;;8.48;5.28;;;;;;;10.36;58.54;100833.14;1671354;84;21062;-69
2021/11/09 01:34:47;;;;;;;8.50;5.70;;;;;;;10.32;58.75;100823.49;1671484;84;21141;-68
2021/11/09 01:37:14;;;;;;;7.85;5.28;;;;;;;10.28;58.91;100838.41;1671449;84;21971;-69
2021/11/09 01:39:41;;;;;;;8.68;4.83;;;;;;;10.26;59.24;100839.16;1671141;85;21478;-69
2021/11/09 01:42:08;;;;;;;11.18;5.22;;;;;;;10.22;59.52;100850.03;1671289;84;21469;-69
2021/11/09 01:44:35;;;;;;;10.32;5.17;;;;;;;10.19;59.71;100843.85;1671395;84;21102;-69
2021/11/09 01:47:03;;;;;;;7.03;4.58;;;;;;;10.18;59.86;100846.25;1671186;84;21195;-69
2021/11/09 01:49:29;;;;;;;6.70;4.42;;;;;;;10.14;60.02;100847.80;1671362;85;21097;-69
2021/11/09 01:51:56;;;;;;;5.10;3.72;;;;;;;10.10;60.08;100847.46;1671364;85;21054;-69
2021/11/09 01:54:23;;;;;;;5.28;3.47;;;;;;;10.10;59.97;100850.97;1671696;85;21079;-69
2021/11/09 01:56:50;;;;;;;4.75;3.27;;;;;;;10.06;59.62;100847.16;1670142;85;21114;-69
2021/11/09 01:59:16;;;;;;;5.25;2.75;;;;;;;10.04;59.33;100848.47;1670228;85;21620;-69
2021/11/09 02:01:45;;;;;;;4.87;2.60;;;;;;;10.02;59.05;100852.70;1671492;85;21201;-68
2021/11/09 02:04:12;;;;;;;4.35;2.35;;;;;;;10.01;58.60;100863.11;1671059;84;21066;-68
2021/11/09 02:09:11;;;;;;;3.57;2.07;;;;;;;9.93;58.26;100872.84;1907884;74;23272;-69
2021/11/09 02:11:38;;;;;;;4.62;2.10;;;;;;;9.89;58.16;100874.93;1861913;76;21486;-69
2021/11/09 02:14:07;;;;;;;4.53;2.25;;;;;;;9.85;58.25;100874.61;1861671;77;21884;-69
2021/11/09 02:16:35;;;;;;;4.45;1.80;;;;;;;9.89;58.04;100867.73;1862641;77;21387;-69
2021/11/09 02:19:04;;;;;;;3.25;2.17;;;;;;;9.79;58.23;100875.05;1862480;77;20937;-69
2021/11/09 02:21:31;;;;;;;3.65;2.02;;;;;;;9.82;58.18;100877.77;1862394;77;20951;-69
2021/11/09 02:23:59;;;;;;;3.30;1.90;;;;;;;9.79;58.27;100882.25;1862450;76;20939;-69
2021/11/09 02:26:26;;;;;;;3.22;2.08;;;;;;;9.77;58.41;100891.01;1862433;77;21126;-69
2021/11/09 02:28:58;;;;;;;4.08;2.17;;;;;;;9.71;58.42;100891.48;1862432;77;20961;-70
2021/11/09 02:31:26;;;;;;;3.62;2.08;;;;;;;9.67;58.56;100887.66;1862744;77;20864;-69
2021/11/09 02:33:52;;;;;;;2.90;1.95;;;;;;;9.64;58.69;100888.17;1858989;76;20983;-69
2021/11/09 02:36:19;;;;;;;3.35;1.82;;;;;;;9.60;58.78;100889.68;1828938;78;21030;-68
2021/11/09 02:38:47;;;;;;;3.20;1.90;;;;;;;9.55;58.94;100897.09;1828692;78;21132;-68
2021/11/09 02:41:14;;;;;;;4.08;1.90;;;;;;;9.51;59.13;100891.95;1830687;77;20924;-68
2021/11/09 02:43:41;;;;;;;3.27;1.90;;;;;;;9.48;59.22;100896.97;1828501;78;21494;-69
2021/11/09 02:48:55;;;;;;;3.47;1.90;;;;;;;9.32;59.54;100902.02;1828644;78;21110;-68
2021/11/09 02:51:29;;;;;;;2.45;1.57;;;;;;;9.35;59.45;100910.08;1828161;77;21122;-69
2021/11/09 02:54:04;;;;;;;2.70;1.70;;;;;;;9.32;59.26;100899.89;1827076;78;20987;-68
2021/11/09 02:56:28;;;;;;;3.98;1.50;;;;;;;9.27;59.17;100907.78;1837941;77;21483;-69
2021/11/09 03:01:54;;;;;;;3.72;1.27;;;;;;;9.16;58.06;100924.13;1862429;76;21031;-69
2021/11/09 03:09:41;;;;;;;2.50;1.45;;;;;;;9.02;57.65;100928.93;1819312;78;21544;-69
2021/11/09 03:12:04;;;;;;;2.47;1.30;;;;;;;9.08;57.51;100931.98;1844440;76;21518;-70
2021/11/09 03:14:33;;;;;;;2.10;1.10;;;;;;;9.09;57.46;100936.78;1861675;77;21007;-69
2021/11/09 03:17:05;;;;;;;2.98;1.40;;;;;;;9.07;57.44;100942.33;1862417;77;21125;-70
2021/11/09 03:19:38;;;;;;;2.40;1.20;;;;;;;9.05;57.46;100940.45;1861582;76;21568;-70
2021/11/09 03:46:40;;;;;;;5.45;3.25;;;;;;;8.32;58.95;100952.98;1828102;78;21469;-69
2021/11/09 03:49:07;;;;;;;5.25;3.20;;;;;;;8.22;59.09;100958.36;1827860;78;21466;-68
2021/11/09 03:51:35;;;;;;;4.65;2.80;;;;;;;8.14;59.26;100969.36;1807651;78;21419;-69
2021/11/09 03:54:09;;;;;;;5.92;2.80;;;;;;;8.04;59.48;100973.11;1827843;78;21132;-69
2021/11/09 03:56:44;;;;;;;3.60;1.90;;;;;;;7.95;59.75;100967.30;1827841;78;22344;-69
2021/11/09 03:59:11;;;;;;;3.37;1.67;;;;;;;7.83;60.15;100981.62;1827225;78;20995;-69
2021/11/09 04:01:43;;;;;;;2.98;1.55;;;;;;;7.80;60.40;100983.40;1827275;78;20923;-69
2021/11/09 04:06:47;;;;;;;2.55;1.40;;;;;;;7.69;60.91;100988.47;1833238;77;20952;-69
2021/11/09 04:09:34;;;;;;;2.27;1.40;;;;;;;7.71;61.02;100990.39;1860929;76;21198;-69
2021/11/09 04:11:58;;;;;;;2.80;1.62;;;;;;;7.72;61.17;100992.00;1860219;77;21090;-69
2021/11/09 04:16:59;;;;;;;4.62;2.20;;;;;;;7.72;61.47;100993.33;1861812;77;21038;-69
2021/11/09 04:26:56;;;;;;;2.55;1.75;;;;;;;7.78;60.77;101002.25;1828204;78;21039;-69
2021/11/09 04:32:12;;;;;;;3.15;1.77;;;;;;;7.75;60.34;101014.15;1828101;78;21506;-70
2021/11/09 04:46:45;;;;;;;4.50;2.12;;;;;;;7.57;60.69;101032.83;1838572;77;21031;-69
2021/11/09 04:51:06;;;;;;;4.55;2.15;;;;;;;7.43;61.02;101030.03;1861693;77;20968;-69
2021/11/09 05:09:19;;;;;;;3.52;2.40;;;;;;;6.86;61.82;101055.52;1861618;77;20927;-70
2021/11/09 05:11:40;;;;;;;3.90;2.30;;;;;;;6.77;61.82;101064.27;1860915;76;20960;-70
2021/11/09 05:14:09;;;;;;;4.53;2.70;;;;;;;6.72;61.81;101056.17;1861527;77;21215;-70
2021/11/09 05:16:39;;;;;;;3.55;2.15;;;;;;;6.69;61.87;101058.45;1861865;77;21108;-69
2021/11/09 05:19:07;;;;;;;3.40;2.25;;;;;;;6.66;61.98;101068.18;1861804;77;21164;-69
2021/11/09 05:21:36;;;;;;;4.25;2.50;;;;;;;6.61;62.11;101074.13;1861829;77;20986;-69
2021/11/09 05:24:03;;;;;;;3.42;1.90;;;;;;;6.55;62.28;101079.80;1861797;76;20987;-69
2021/11/09 05:26:30;;;;;;;5.15;2.67;;;;;;;6.50;62.54;101080.95;1861652;77;21136;-69
2021/11/09 05:28:57;;;;;;;3.95;2.40;;;;;;;6.45;62.75;101090.59;1861458;77;21058;-69
2021/11/09 05:31:24;;;;;;;3.22;2.20;;;;;;;6.42;62.81;101094.51;1861546;76;21058;-69
2021/11/09 05:33:54;;;;;;;5.28;2.25;;;;;;;6.39;63.00;101105.55;1861494;77;21545;-69
2021/11/09 05:36:18;;;;;;;3.42;2.15;;;;;;;6.35;63.18;101117.63;1861616;76;21120;-69
2021/11/09 05:38:56;;;;;;;3.47;2.30;;;;;;;6.33;63.32;101122.33;1861265;76;21067;-70
2021/11/09 05:41:21;;;;;;;3.42;2.35;;;;;;;6.30;63.36;101122.23;1861285;76;21034;-69
2021/11/09 05:43:49;;;;;;;4.12;2.37;;;;;;;6.30;63.39;101123.56;1861703;77;21026;-70
2021/11/09 05:46:16;;;;;;;3.42;2.37;;;;;;;6.32;63.32;101133.45;1861773;77;20924;-70
2021/11/09 05:48:43;;;;;;;4.53;2.25;;;;;;;6.32;63.30;101141.42;1861367;77;21027;-69
2021/11/09 05:51:10;;;;;;;3.95;2.30;;;;;;;6.34;63.33;101137.21;1861566;77;21184;-70
2021/11/09 05:53:37;;;;;;;2.77;1.87;;;;;;;6.36;63.39;101138.34;1861547;77;20971;-69
2021/11/09 05:56:04;;;;;;;3.67;2.15;;;;;;;6.41;63.42;101143.80;1861924;77;21014;-68
2021/11/09 05:58:32;;;;;;;4.25;2.47;;;;;;;6.46;63.41;101147.44;1861587;77;21034;-68
2021/11/09 06:00:58;;;;;;;3.92;2.58;;;;;;;6.50;63.18;101152.61;1861632;77;21557;-68
2021/11/09 06:03:26;;;;;;;3.75;2.40;;;;;;;6.54;62.94;101152.47;1861602;77;21175;-69
2021/11/09 06:05:53;;;;;;;4.30;2.70;;;;;;;6.56;62.51;101155.73;1861582;76;21057;-69
2021/11/09 06:08:21;;;;;;;3.42;2.45;;;;;;;6.56;62.48;101156.25;1861515;77;20971;-69
2021/11/09 06:10:49;;;;;;;5.28;2.60;;;;;;;6.61;62.21;101167.02;1861541;77;20931;-70
2021/11/09 06:13:18;;;;;;;4.17;2.77;;;;;;;6.63;61.75;101173.45;1861480;76;20956;-69
2021/11/09 06:15:46;;;;;;;5.05;3.00;;;;;;;6.67;61.33;101187.92;1861555;77;21128;-69
2021/11/09 06:18:13;;;;;;;4.10;2.90;;;;;;;6.68;61.09;101174.94;1861412;77;21152;-69
2021/11/09 06:20:40;;;;;;;4.00;2.80;;;;;;;6.69;60.75;101181.89;1861608;77;21597;-69
2021/11/09 06:23:06;;;;;;;4.65;3.30;;;;;;;6.68;60.40;101191.70;1861614;77;20955;-69
2021/11/09 06:25:34;;;;;;;4.72;2.92;;;;;;;6.68;60.21;101198.34;1861854;77;21096;-69
2021/11/09 06:28:04;;;;;;;3.47;2.60;;;;;;;6.69;60.08;101201.80;1861795;77;21130;-68
2021/11/09 06:30:32;;;;;;;4.72;2.60;;;;;;;6.71;59.96;101207.69;1861992;77;20950;-69
2021/11/09 06:32:59;;;;;;;3.67;2.50;;;;;;;6.72;59.44;101201.38;1862146;77;20952;-68
2021/11/09 06:35:26;;;;;;;3.62;2.40;;;;;;;6.68;58.99;101211.61;1861926;77;20921;-69
2021/11/09 06:37:53;;;;;;;4.72;2.52;;;;;;;6.69;58.98;101222.52;1862227;77;21046;-70
2021/11/09 06:40:20;;;;;;;4.17;2.00;;;;;;;6.69;58.83;101212.42;1861556;77;21139;-69
2021/11/09 06:42:48;;;;;;;2.95;2.10;;;;;;;6.71;58.69;101216.50;1861670;77;21018;-71
2021/11/09 06:45:15;;;;;;;3.72;2.17;;;;;;;6.76;58.44;101217.16;1861514;77;20967;-69
2021/11/09 06:47:43;;;;;;;3.58;2.20;;;;;;;6.73;58.40;101231.67;1861492;76;20972;-69
2021/11/09 06:50:10;;;;;;;4.60;2.35;;;;;;;6.71;58.43;101224.46;1861526;77;20991;-69
2021/11/09 06:52:36;;;;;;;3.30;1.98;;;;;;;6.71;58.62;101223.13;1861699;77;21143;-70
2021/11/09 06:55:05;;;;;;;2.67;1.82;;;;;;;6.75;58.65;101233.61;1861526;77;20971;-71
2021/11/09 06:57:31;;;;;;;3.35;2.15;;;;;;;6.74;58.70;101241.25;1861592;77;20976;-70
2021/11/09 06:59:58;;;;;;;4.62;2.42;;;;;;;6.79;58.64;101242.77;1861703;77;21485;-70
2021/11/09 07:02:27;;;;;;;3.42;2.12;;;;;;;6.91;58.28;101246.05;1861891;77;20967;-70
2021/11/09 07:04:53;;;;;;;4.03;2.40;;;;;;;6.94;57.97;101249.60;1848417;75;21452;-70
2021/11/09 07:07:20;;;;;;;3.70;2.60;;;;;;;6.95;57.55;101253.91;1830468;76;21007;-70
2021/11/09 07:09:47;;;;;;;3.35;2.22;;;;;;;6.92;57.65;101261.78;1828659;77;21007;-70
2021/11/09 07:12:14;;;;;;;4.92;2.45;;;;;;;6.88;57.53;101267.23;1828251;78;20978;-70
2021/11/09 07:14:41;;;;;;;3.95;1.92;;;;;;;6.87;57.14;101274.88;1842132;77;20959;-70
2021/11/09 07:17:09;;;;;;;3.60;2.00;;;;;;;6.89;57.07;101268.84;1856911;77;21108;-70
2021/11/09 07:19:40;;;;;;;3.95;2.40;;;;;;;6.89;56.78;101272.83;1861489;76;20983;-70
2021/11/09 07:22:06;;;;;;;3.50;2.40;;;;;;;6.89;56.89;101278.14;1861753;76;20928;-70
2021/11/09 07:24:33;;;;;;;2.55;1.92;;;;;;;6.91;56.67;101284.55;1861352;77;21086;-69
2021/11/09 07:27:02;;;;;;;3.58;2.25;;;;;;;6.92;56.50;101286.20;1861712;76;20927;-71
2021/11/09 07:29:28;;;;;;;3.55;2.15;;;;;;;6.95;56.54;101297.73;1861603;77;21872;-70
2021/11/09 07:31:57;;;;;;;4.35;2.12;;;;;;;6.98;56.17;101299.95;1845533;77;20968;-70
2021/11/09 07:34:24;;;;;;;3.50;1.92;;;;;;;6.96;55.90;101298.02;1827769;78;20976;-70
2021/11/09 07:36:52;;;;;;;2.72;1.80;;;;;;;6.94;55.55;101307.55;1830117;77;20990;-70
2021/11/09 07:39:20;;;;;;;3.08;2.00;;;;;;;6.92;55.28;101306.12;1859112;77;20979;-70
2021/11/09 07:41:47;;;;;;;2.87;1.70;;;;;;;6.89;55.08;101308.69;1861613;77;21072;-70
2021/11/09 07:44:14;;;;;;;3.92;1.90;;;;;;;6.90;55.22;101315.61;1861318;77;20966;-69
2021/11/09 07:46:41;;;;;;;3.60;1.92;;;;;;;6.92;55.12;101306.93;1861287;77;20959;-70
2021/11/09 07:49:10;;;;;;;2.67;1.92;;;;;;;6.91;54.76;101311.11;1860767;77;21010;-70
2021/11/09 07:51:37;;;;;;;2.85;1.72;;;;;;;6.89;54.53;101336.56;1861704;77;21119;-69
2021/11/09 07:54:05;;;;;;;3.08;1.90;;;;;;;6.87;54.47;101318.69;1861580;76;21104;-69
2021/11/09 07:56:40;;;;;;;3.50;1.77;;;;;;;6.84;54.41;101324.95;1861084;77;21018;-70
2021/11/09 07:59:22;;;;;;;3.65;1.90;;;;;;;6.81;54.20;101327.51;1858339;76;21015;-70
2021/11/09 08:01:45;;;;;;;2.65;1.80;;;;;;;6.81;54.13;101332.33;1858642;77;21027;-68
2021/11/09 08:04:17;;;;;;;2.92;1.50;;;;;;;6.86;54.01;101341.49;1861554;77;20955;-70
2021/11/09 08:06:50;;;;;;;3.85;1.70;;;;;;;6.86;53.50;101336.19;1861762;76;21201;-69
2021/11/09 08:09:27;;;;;;;4.40;1.50;;;;;;;6.85;53.37;101351.83;1861288;76;20912;-69
2021/11/09 08:11:51;;;;;;;2.15;1.32;;;;;;;6.85;53.48;101347.84;1861373;76;20987;-70
2021/11/09 08:14:18;;;;;;;3.15;1.70;;;;;;;6.86;53.50;101352.11;1861552;77;20998;-69
2021/11/09 08:16:47;;;;;;;3.37;1.65;;;;;;;6.89;53.68;101363.64;1861583;77;20971;-70
2021/11/09 08:19:16;;;;;;;2.60;1.52;;;;;;;6.88;53.34;101375.27;1859075;75;21092;-69
2021/11/09 08:21:44;;;;;;;3.05;1.50;;;;;;;6.92;53.43;101376.50;1834604;77;21026;-69
2021/11/09 08:24:14;;;;;;;4.30;1.72;;;;;;;6.88;53.49;101380.58;1828516;77;20987;-69
2021/11/09 08:26:42;;;;;;;3.55;1.70;;;;;;;6.94;53.08;101381.06;1807814;78;20979;-69
2021/11/09 08:29:09;;;;;;;4.33;1.60;;;;;;;6.98;52.71;101383.63;1827861;78;21084;-69
2021/11/09 08:31:37;;;;;;;3.60;1.70;;;;;;;6.98;52.50;101387.09;1856351;75;21808;-70
2021/11/09 08:34:05;;;;;;;2.50;1.52;;;;;;;6.99;52.17;101399.33;1852289;77;21407;-70
2021/11/09 08:36:32;;;;;;;3.22;1.80;;;;;;;7.02;52.17;101386.14;1829719;76;21027;-70
2021/11/09 08:39:03;;;;;;;2.52;1.50;;;;;;;7.04;52.08;101400.85;1830436;77;21525;-70
2021/11/09 08:41:38;;;;;;;3.58;1.82;;;;;;;7.08;51.91;101393.78;1857223;77;20968;-70
2021/11/09 08:44:06;;;;;;;3.98;1.90;;;;;;;7.09;51.83;101393.56;1844827;76;21106;-72
2021/11/09 08:46:55;;;;;;;3.55;1.98;;;;;;;7.09;51.92;101398.88;1809588;78;21011;-70
2021/11/09 08:49:07;;;;;;;3.30;1.70;;;;;;;7.13;52.17;101402.72;1846185;77;21101;-71
2021/11/09 08:51:34;;;;;;;3.52;1.95;;;;;;;7.19;52.18;101395.23;1837950;77;20952;-69
2021/11/09 08:54:12;;;;;;;4.00;2.20;;;;;;;7.20;52.16;101394.72;1827619;78;20979;-70
2021/11/09 08:56:58;;;;;;;4.10;2.30;;;;;;;7.22;51.86;101390.82;1827327;77;21119;-70
2021/11/09 09:04:51;;;;;;;2.70;1.70;;;;;;;7.28;50.82;101400.59;1861494;77;21034;-71
2021/11/09 09:07:18;;;;;;;4.25;1.80;;;;;;;7.34;50.40;101403.41;1842771;77;21033;-71
2021/11/09 09:09:45;;;;;;;2.87;1.77;;;;;;;7.40;50.35;101407.36;1827743;78;21088;-71
2021/11/09 09:12:12;;;;;;;3.80;1.82;;;;;;;7.43;50.16;101396.30;1827833;78;20996;-71
2021/11/09 09:14:39;;;;;;;4.90;1.90;;;;;;;7.45;50.21;101409.39;1827723;78;21036;-69
2021/11/09 09:17:06;;;;;;;2.70;1.70;;;;;;;7.42;50.54;101416.45;1830448;77;20979;-71
2021/11/09 09:19:40;;;;;;;3.20;1.30;;;;;;;7.37;50.31;101422.91;1858302;77;20967;-70
2021/11/09 09:22:06;;;;;;;2.08;1.45;;;;;;;7.32;49.77;101434.20;1860606;76;21130;-70
2021/11/09 09:24:42;;;;;;;2.95;1.45;;;;;;;7.25;49.53;101433.43;1860808;76;21011;-71
2021/11/09 09:27:14;;;;;;;3.42;1.40;;;;;;;7.20;49.65;101446.00;1859660;76;21419;-70
2021/11/09 09:29:42;;;;;;;3.50;1.52;;;;;;;7.17;49.77;101449.61;1860429;76;21062;-72
2021/11/09 09:54:08;;;;;;;2.47;1.32;;;;;;;7.72;47.56;101491.11;1827853;78;20987;-71
2021/11/09 09:56:44;;;;;;;4.90;1.87;;;;;;;7.70;46.97;101486.50;1827440;78;21470;-70
2021/11/09 09:59:11;;;;;;;3.47;1.77;;;;;;;7.61;46.42;101481.17;1826796;76;20964;-70
2021/11/09 10:01:43;;;;;;;2.87;1.42;;;;;;;7.50;46.23;101478.66;1860333;76;21105;-71
2021/11/09 10:04:31;;;;;;;2.80;1.70;;;;;;;7.47;46.23;101477.27;1861028;76;21010;-70
2021/11/09 10:06:59;;;;;;;3.50;1.60;;;;;;;7.55;46.54;101486.00;1860489;76;21439;-70
2021/11/09 10:09:44;;;;;;;2.42;1.50;;;;;;;7.64;45.34;101484.20;1861525;77;21019;-70
2021/11/09 10:12:34;;;;;;;2.62;1.50;;;;;;;7.67;44.52;101476.33;1860990;76;21018;-71
2021/11/09 10:15:15;;;;;;;3.87;1.52;;;;;;;7.65;43.88;101481.84;1861571;77;21090;-70
2021/11/09 10:17:46;;;;;;;2.00;1.30;;;;;;;7.64;43.67;101484.20;1860823;76;20975;-70
2021/11/09 10:20:19;;;;;;;3.60;1.40;;;;;;;7.63;43.47;101487.87;1861853;77;21405;-70
2021/11/09 10:22:50;;;;;;;5.28;1.75;;;;;;;7.69;43.94;101485.69;1861733;77;20984;-70
2021/11/09 10:25:18;;;;;;;4.00;1.40;;;;;;;7.86;44.17;101487.31;1860736;76;21006;-70
2021/11/09 10:27:47;;;;;;;2.47;1.55;;;;;;;7.99;43.94;101479.27;1861778;77;21118;-70
2021/11/09 10:30:24;;;;;;;2.80;1.60;;;;;;;8.05;43.61;101488.20;1861721;77;21252;-70
2021/11/09 10:32:52;;;;;;;3.00;1.40;;;;;;;7.91;43.25;101480.84;1861783;77;21021;-70
2021/11/09 10:35:20;;;;;;;2.45;1.25;;;;;;;7.81;42.39;101485.02;1861614;77;21435;-69
2021/11/09 10:37:50;;;;;;;3.10;1.30;;;;;;;7.68;42.36;101489.91;1861997;77;21026;-70
2021/11/09 10:40:27;;;;;;;2.58;1.30;;;;;;;7.52;42.43;101499.20;1861897;77;21086;-71
2021/11/09 10:42:59;;;;;;;3.62;1.40;;;;;;;7.39;42.66;101489.45;1861839;77;21510;-69
2021/11/09 10:45:30;;;;;;;4.85;1.30;;;;;;;7.34;43.27;101499.92;1862111;77;20924;-71
2021/11/09 10:48:00;;;;;;;3.00;1.47;;;;;;;7.36;43.41;101508.48;1861946;77;20940;-71
2021/11/09 10:50:35;;;;;;;2.50;1.30;;;;;;;7.35;43.36;101500.73;1861861;77;21407;-70
2021/11/09 10:53:24;;;;;;;3.45;1.70;;;;;;;7.36;42.98;101501.03;1861633;76;21519;-69
2021/11/09 11:04:05;;;;;;;3.72;1.90;;;;;;;6.97;45.45;101510.78;1861017;76;21466;-70
2021/11/09 11:06:38;;;;;;;3.70;1.80;;;;;;;6.89;45.58;101518.48;1861512;77;21128;-69
2021/11/09 11:09:17;;;;;;;2.17;1.37;;;;;;;6.86;45.93;101512.77;1861992;76;20908;-70
2021/11/09 11:11:54;;;;;;;3.05;1.50;;;;;;;6.85;45.99;101521.78;1861769;76;20960;-70
2021/11/09 11:14:25;;;;;;;4.42;1.62;;;;;;;6.85;45.57;101535.86;1861695;77;21014;-70
2021/11/09 11:16:59;;;;;;;2.90;1.50;;;;;;;6.79;44.99;101520.24;1861020;76;21062;-69
2021/11/09 11:19:30;;;;;;;1.98;1.30;;;;;;;6.80;44.71;101533.81;1861223;76;20994;-70
2021/11/09 11:22:08;;;;;;;2.33;1.40;;;;;;;6.91;44.00;101532.87;1861517;77;21388;-70
2021/11/09 11:24:35;;;;;;;1.90;1.17;;;;;;;7.04;43.61;101530.17;1861578;77;21027;-69
2021/11/09 11:27:04;;;;;;;1.98;1.07;;;;;;;7.15;43.42;101536.70;1861850;76;20988;-69
2021/11/09 11:29:37;;;;;;;2.60;1.22;;;;;;;7.19;43.40;101538.70;1861575;77;21039;-71
2021/11/09 11:32:09;;;;;;;2.70;1.32;;;;;;;7.09;43.05;101550.30;1861898;77;22000;-71
2021/11/09 11:34:36;;;;;;;2.12;1.20;;;;;;;6.99;43.23;101540.62;1861551;77;21404;-69
2021/11/09 11:37:03;;;;;;;2.30;1.40;;;;;;;6.90;43.56;101541.34;1857040;75;20983;-69
2021/11/09 11:39:32;;;;;;;2.37;1.20;;;;;;;6.87;43.71;101543.61;1834104;77;21054;-68
2021/11/09 11:42:08;;;;;;;2.87;1.50;;;;;;;6.87;43.71;101543.61;1844963;77;21042;-71
2021/11/09 11:44:37;;;;;;;2.77;1.50;;;;;;;6.96;44.04;101539.19;1828043;78;21486;-68
2021/11/09 11:47:18;;;;;;;2.30;1.20;;;;;;;7.11;44.17;101540.28;1827904;78;21031;-70
2021/11/09 11:49:53;;;;;;;3.35;1.30;;;;;;;7.25;44.29;101539.20;1827995;78;21030;-71
2021/11/09 11:52:25;;;;;;;1.67;1.20;;;;;;;7.39;43.20;101547.93;1828239;78;20907;-71
2021/11/09 11:55:09;;;;;;;2.37;1.30;;;;;;;7.47;42.61;101554.87;1827880;78;21105;-71
2021/11/09 11:57:45;;;;;;;2.45;1.20;;;;;;;7.46;42.46;101545.23;1828054;78;21030;-70
2021/11/09 12:00:38;;;;;;;2.83;1.50;;;;;;;7.42;42.75;101549.36;1827587;78;21505;-70
2021/11/09 12:03:19;;;;;;;3.80;1.72;;;;;;;7.40;42.73;101559.37;1827864;78;21042;-69
2021/11/09 12:05:48;;;;;;;2.45;1.30;;;;;;;7.44;43.02;101568.58;1816634;77;21063;-69
2021/11/09 12:08:18;;;;;;;2.45;1.32;;;;;;;7.54;42.56;101570.27;1827838;78;21081;-70
2021/11/09 12:10:51;;;;;;;1.92;1.00;;;;;;;7.59;42.28;101574.42;1824786;77;21181;-71
2021/11/09 12:13:21;;;;;;;2.72;1.15;;;;;;;7.52;41.77;101578.95;1827846;78;21533;-70
2021/11/09 12:16:05;;;;;;;1.70;1.17;;;;;;;7.41;42.01;101584.95;1828306;77;20936;-70
2021/11/09 12:18:41;;;;;;;2.45;1.25;;;;;;;7.27;42.06;101586.81;1827778;78;20974;-70
2021/11/09 12:21:23;;;;;;;2.25;1.17;;;;;;;7.09;42.08;101602.10;1828076;77;21196;-70
2021/11/09 12:24:16;;;;;;;2.10;1.00;;;;;;;7.02;42.31;101590.68;1827995;78;21315;-69
2021/11/09 12:26:47;;;;;;;2.60;1.20;;;;;;;6.99;42.05;101583.13;1828052;78;21029;-69
2021/11/09 12:29:46;;;;;;;1.98;1.20;;;;;;;6.93;42.17;101602.54;1827954;78;21030;-70
2021/11/09 12:32:38;;;;;;;1.65;1.00;;;;;;;6.86;42.22;101605.20;1815045;78;21011;-71
2021/11/09 12:35:19;;;;;;;1.98;1.00;;;;;;;6.79;42.40;101609.20;1832705;77;20967;-70
2021/11/09 12:38:09;;;;;;;2.10;1.17;;;;;;;6.79;42.69;101610.52;1833238;77;21128;-71
2021/11/09 12:40:52;;;;;;;5.03;1.75;;;;;;;6.80;42.87;101614.80;1827815;78;21089;-69
2021/11/09 12:43:31;;;;;;;2.80;1.50;;;;;;;6.86;43.25;101621.14;1827969;78;21105;-70
2021/11/09 12:46:11;;;;;;;2.30;1.15;;;;;;;6.94;43.31;101637.36;1827716;78;21054;-69
2021/11/09 12:48:51;;;;;;;2.52;1.20;;;;;;;6.96;42.79;101632.67;1827979;78;20971;-71
2021/11/09 12:51:28;;;;;;;1.95;1.00;;;;;;;6.95;42.34;101630.53;1830231;77;21938;-70
2021/11/09 12:54:01;;;;;;;3.12;1.17;;;;;;;6.91;42.30;101631.13;1832986;77;21538;-71
2021/11/09 12:56:38;;;;;;;2.20;1.02;;;;;;;6.87;42.36;101653.30;1861803;77;21007;-71
2021/11/09 13:07:21;;;;;;;4.80;1.47;;;;;;;6.76;42.58;101645.45;1861571;77;20979;-69
2021/11/09 13:09:49;;;;;;;2.40;1.17;;;;;;;6.75;43.08;101657.62;1860780;76;21678;-70
2021/11/09 13:12:22;;;;;;;2.15;1.17;;;;;;;6.77;43.46;101655.05;1861642;77;21078;-70
2021/11/09 13:14:57;;;;;;;1.62;1.10;;;;;;;6.82;43.91;101665.06;1861613;77;20975;-71
2021/11/09 13:17:36;;;;;;;2.85;1.22;;;;;;;6.87;43.86;101675.88;1861495;77;20920;-71
2021/11/09 13:20:20;;;;;;;3.70;1.40;;;;;;;6.90;44.29;101678.13;1861560;77;21023;-71
2021/11/09 13:22:58;;;;;;;4.15;1.45;;;;;;;6.90;45.08;101668.02;1861952;77;20979;-69
2021/11/09 13:25:38;;;;;;;4.50;1.50;;;;;;;6.93;45.37;101684.36;1861560;77;20991;-70
2021/11/09 13:28:18;;;;;;;3.67;1.80;;;;;;;6.95;45.33;101689.48;1861982;77;21151;-69
2021/11/09 13:30:54;;;;;;;4.80;2.08;;;;;;;6.91;45.23;101701.03;1859020;77;21093;-70
2021/11/09 13:33:25;;;;;;;3.45;1.50;;;;;;;6.92;45.60;101700.52;1861052;76;21030;-71
2021/11/09 13:35:53;;;;;;;3.77;1.70;;;;;;;6.88;45.92;101712.55;1861433;77;21537;-70
2021/11/09 13:38:31;;;;;;;4.03;1.75;;;;;;;6.80;45.89;101702.44;1861811;76;21570;-70
2021/11/09 13:41:05;;;;;;;4.78;1.65;;;;;;;6.74;46.18;101711.20;1861646;76;21487;-70
2021/11/09 13:43:38;;;;;;;3.45;1.50;;;;;;;6.64;46.29;101716.09;1861523;76;21147;-70
2021/11/09 13:46:10;;;;;;;3.65;1.80;;;;;;;6.56;46.67;101718.96;1861359;77;21033;-69
2021/11/09 13:48:39;;;;;;;4.13;1.50;;;;;;;6.48;46.75;101727.94;1861876;77;20995;-70
2021/11/09 13:51:11;;;;;;;2.72;1.32;;;;;;;6.39;46.84;101740.27;1854748;75;21112;-70
2021/11/09 13:53:46;;;;;;;2.72;1.45;;;;;;;6.28;46.93;101748.27;1840805;76;21062;-72